createdAt,value
2023-05-21T00:00:03.717Z,100794.3
2023-05-21T00:01:03.584Z,100792.84
2023-05-21T00:02:03.867Z,100794.08
2023-05-21T00:03:03.313Z,100787.95
2023-05-21T00:04:03.322Z,100793.25
2023-05-21T00:05:03.563Z,100794.58
2023-05-21T00:06:03.938Z,100793.81
2023-05-21T00:07:03.644Z,100796.75
2023-05-21T00:08:03.766Z,100796.16
2023-05-21T00:09:04.090Z,100796.53
2023-05-21T00:10:03.495Z,100796.17
2023-05-21T00:11:03.324Z,100792.12
2023-05-21T00:12:06.504Z,100791.65
2023-05-21T00:13:04.245Z,100788.21
2023-05-21T00:14:04.234Z,100788.42
2023-05-21T00:15:04.562Z,100787.27
2023-05-21T00:16:04.485Z,100791.27
2023-05-21T00:17:04.548Z,100788.41
2023-05-21T00:18:04.872Z,100790.41
2023-05-21T00:19:04.187Z,100793.68
2023-05-21T00:20:04.958Z,100793.38
2023-05-21T00:21:04.156Z,100792.75
2023-05-21T00:22:04.397Z,100791.84
2023-05-21T00:23:04.245Z,100791.82
2023-05-21T00:24:04.584Z,100789.97
2023-05-21T00:25:04.704Z,100794.24
2023-05-21T00:26:04.270Z,100789.14
2023-05-21T00:27:04.610Z,100787.13
2023-05-21T00:28:04.666Z,100790.14
2023-05-21T00:29:04.712Z,100788.84
2023-05-21T00:30:04.949Z,100783.59
2023-05-21T00:31:04.453Z,100784.77
2023-05-21T00:32:04.958Z,100783.78
2023-05-21T00:33:04.342Z,100784.31
2023-05-21T00:34:04.334Z,100780.98
2023-05-21T00:35:04.783Z,100784.26
2023-05-21T00:36:04.986Z,100781.77
2023-05-21T00:37:04.971Z,100783.17
2023-05-21T00:38:04.450Z,100782.95
2023-05-21T00:39:05.240Z,100781.73
2023-05-21T00:40:05.384Z,100783.05
2023-05-21T00:41:04.690Z,100783.06
2023-05-21T00:42:05.004Z,100783.23
2023-05-21T00:43:04.458Z,100786.56
2023-05-21T00:44:05.135Z,100779.83
2023-05-21T00:45:05.675Z,100784.23
2023-05-21T00:46:04.644Z,100785.92
2023-05-21T00:47:05.353Z,100787.61
2023-05-21T00:48:05.629Z,100782.8
2023-05-21T00:49:04.742Z,100791.78
2023-05-21T00:50:05.745Z,100788.59
2023-05-21T00:51:04.782Z,100784.66
2023-05-21T00:52:05.373Z,100785.81
2023-05-21T00:53:04.919Z,100785.69
2023-05-21T00:54:04.705Z,100791.23
2023-05-21T00:55:05.304Z,100784.61
2023-05-21T00:56:05.358Z,100783.06
2023-05-21T00:57:05.240Z,100786.95
2023-05-21T00:58:05.128Z,100783.86
2023-05-21T00:59:04.942Z,100785.2
2023-05-21T01:00:05.473Z,100787.62
2023-05-21T01:01:04.939Z,100785.26
2023-05-21T01:02:05.502Z,100789.95
2023-05-21T01:03:05.641Z,100785.27
2023-05-21T01:04:05.051Z,100781.16
2023-05-21T01:05:05.292Z,100783.72
2023-05-21T01:06:05.797Z,100782.84
2023-05-21T01:07:04.904Z,100777.7
2023-05-21T01:08:05.413Z,100786.45
2023-05-21T01:09:05.443Z,100785.26
2023-05-21T01:10:06.245Z,100784.39
2023-05-21T01:11:06.339Z,100786.28
2023-05-21T01:12:05.724Z,100783.08
2023-05-21T01:13:05.229Z,100784.22
2023-05-21T01:14:05.640Z,100786.18
2023-05-21T01:15:05.759Z,100793.45
2023-05-21T01:16:05.875Z,100792.12
2023-05-21T01:17:05.905Z,100790.46
2023-05-21T01:18:05.495Z,100795.05
2023-05-21T01:19:05.628Z,100793.99
2023-05-21T01:20:08.005Z,100794.3
2023-05-21T01:21:06.429Z,100793.24
2023-05-21T01:22:07.273Z,100799.37
2023-05-21T01:23:06.423Z,100792.84
2023-05-21T01:24:06.335Z,100793.34
2023-05-21T01:25:06.668Z,100791.45
2023-05-21T01:26:06.088Z,100790.66
2023-05-21T01:27:06.230Z,100781.14
2023-05-21T01:28:06.154Z,100790.91
2023-05-21T01:29:06.174Z,100791.62
2023-05-21T01:30:06.853Z,100791.97
2023-05-21T01:31:15.991Z,100792.48
2023-05-21T01:32:21.416Z,100794.24
2023-05-21T01:34:13.528Z,100795.74
2023-05-21T01:35:20.524Z,100798.91
2023-05-21T01:36:28.935Z,100797.83
2023-05-21T01:37:22.899Z,100801.47
2023-05-21T01:38:26.106Z,100798.89
2023-05-21T01:39:25.958Z,100798.61
2023-05-21T01:41:23.968Z,100802.32
2023-05-21T01:42:23.532Z,100796.28
2023-05-21T01:43:23.371Z,100800.35
2023-05-21T01:44:24.009Z,100797.23
2023-05-21T01:45:23.671Z,100795.44
2023-05-21T01:46:27.202Z,100794.32
2023-05-21T01:47:24.570Z,100793.23
2023-05-21T01:48:25.599Z,100789.62
2023-05-21T01:49:24.713Z,100790.91
2023-05-21T01:50:24.492Z,100792.03
2023-05-21T01:51:25.038Z,100793.25
2023-05-21T01:52:24.255Z,100793.61
2023-05-21T01:53:24.437Z,100793.18
2023-05-21T01:54:24.070Z,100797.75
2023-05-21T01:55:24.668Z,100794.22
2023-05-21T01:56:24.105Z,100797.35
2023-05-21T01:57:24.131Z,100797.6
2023-05-21T01:58:24.089Z,100802.53
2023-05-21T01:59:24.191Z,100800.64
2023-05-21T02:00:25.009Z,100800.09
2023-05-21T02:01:24.190Z,100801.01
2023-05-21T02:02:24.173Z,100794.7
2023-05-21T02:03:25.707Z,100794.47
2023-05-21T02:04:24.229Z,100796.69
2023-05-21T02:05:24.406Z,100790.59
2023-05-21T02:06:24.294Z,100795.03
2023-05-21T02:07:24.274Z,100795.1
2023-05-21T02:08:24.218Z,100799.88
2023-05-21T02:09:24.259Z,100801.77
2023-05-21T02:10:24.329Z,100796.59
2023-05-21T02:11:24.331Z,100796.74
2023-05-21T02:12:24.308Z,100794.61
2023-05-21T02:13:26.209Z,100796.81
2023-05-21T02:14:24.419Z,100800.12
2023-05-21T02:15:24.600Z,100793.46
2023-05-21T02:16:25.244Z,100797.12
2023-05-21T02:17:24.641Z,100797.1
2023-05-21T02:18:24.671Z,100794.86
2023-05-21T02:19:24.679Z,100793.81
2023-05-21T02:20:24.717Z,100791.97
2023-05-21T02:21:24.630Z,100790.69
2023-05-21T02:22:24.566Z,100786.95
2023-05-21T02:23:24.670Z,100791.3
2023-05-21T02:24:24.575Z,100787.13
2023-05-21T02:25:24.737Z,100786.86
2023-05-21T02:26:24.567Z,100784.02
2023-05-21T02:27:24.603Z,100787.52
2023-05-21T02:28:24.771Z,100783.82
2023-05-21T02:29:24.783Z,100784.66
2023-05-21T02:30:24.677Z,100784.22
2023-05-21T02:31:24.686Z,100784.92
2023-05-21T02:32:24.658Z,100786.91
2023-05-21T02:33:24.678Z,100790.44
2023-05-21T02:34:24.889Z,100786.91
2023-05-21T02:35:24.755Z,100785.56
2023-05-21T02:36:24.783Z,100787.42
2023-05-21T02:37:25.239Z,100787.91
2023-05-21T02:38:24.743Z,100786.01
2023-05-21T02:39:24.778Z,100788.48
2023-05-21T02:40:24.969Z,100789.03
2023-05-21T02:41:24.810Z,100791.73
2023-05-21T02:42:24.833Z,100791.03
2023-05-21T02:43:24.834Z,100788.89
2023-05-21T02:44:24.931Z,100789.17
2023-05-21T02:45:24.885Z,100787.78
2023-05-21T02:46:24.982Z,100789.24
2023-05-21T02:47:24.936Z,100788.3
2023-05-21T02:48:25.108Z,100784.53
2023-05-21T02:49:25.098Z,100787.44
2023-05-21T02:50:24.979Z,100785.77
2023-05-21T02:51:25.015Z,100784.16
2023-05-21T02:52:24.986Z,100786.8
2023-05-21T02:53:25.341Z,100782.58
2023-05-21T02:54:25.011Z,100783.66
2023-05-21T02:55:25.454Z,100786.08
2023-05-21T02:56:25.139Z,100781.21
2023-05-21T02:57:25.137Z,100778.14
2023-05-21T02:58:25.073Z,100780.86
2023-05-21T02:59:25.155Z,100783.53
2023-05-21T03:00:25.092Z,100778.19
2023-05-21T03:01:25.110Z,100782.55
2023-05-21T03:02:25.285Z,100780.83
2023-05-21T03:03:25.275Z,100781.82
2023-05-21T03:04:25.178Z,100778.55
2023-05-21T03:05:25.158Z,100780.8
2023-05-21T03:06:25.207Z,100781.11
2023-05-21T03:07:25.188Z,100781.59
2023-05-21T03:08:25.256Z,100782.55
2023-05-21T03:09:25.408Z,100786.23
2023-05-21T03:10:25.301Z,100783.31
2023-05-21T03:11:25.289Z,100787.51
2023-05-21T03:12:25.318Z,100786.24
2023-05-21T03:13:25.341Z,100785.94
2023-05-21T03:14:25.356Z,100787.73
2023-05-21T03:15:25.926Z,100789.82
2023-05-21T03:16:25.422Z,100788.86
2023-05-21T03:17:25.502Z,100785.49
2023-05-21T03:18:25.419Z,100788.31
2023-05-21T03:19:25.507Z,100789.83
2023-05-21T03:20:25.656Z,100784.52
2023-05-21T03:21:25.618Z,100786.83
2023-05-21T03:22:25.489Z,100788.22
2023-05-21T03:23:25.858Z,100786.23
2023-05-21T03:24:25.506Z,100787.27
2023-05-21T03:25:25.577Z,100782.16
2023-05-21T03:26:26.295Z,100784.34
2023-05-21T03:27:25.550Z,100785.34
2023-05-21T03:28:25.591Z,100784.71
2023-05-21T03:29:25.571Z,100783.92
2023-05-21T03:30:25.615Z,100781.43
2023-05-21T03:31:26.461Z,100780.83
2023-05-21T03:32:25.714Z,100783.22
2023-05-21T03:33:25.654Z,100783.19
2023-05-21T03:34:25.668Z,100785.38
2023-05-21T03:35:25.740Z,100786.48
2023-05-21T03:36:25.699Z,100783.19
2023-05-21T03:37:25.677Z,100784.98
2023-05-21T03:38:25.749Z,100777.02
2023-05-21T03:39:25.757Z,100781.06
2023-05-21T03:40:25.802Z,100778.8
2023-05-21T03:41:25.986Z,100775.72
2023-05-21T03:42:25.849Z,100777.11
2023-05-21T03:43:25.797Z,100780.13
2023-05-21T03:44:25.859Z,100777.58
2023-05-21T03:45:25.878Z,100779.3
2023-05-21T03:46:26.080Z,100788.97
2023-05-21T03:47:25.929Z,100780.44
2023-05-21T03:48:25.925Z,100775.22
2023-05-21T03:49:25.973Z,100774.48
2023-05-21T03:50:26.113Z,100773.69
2023-05-21T03:51:25.980Z,100777.78
2023-05-21T03:52:25.990Z,100776.41
2023-05-21T03:53:26.824Z,100775.75
2023-05-21T03:54:26.033Z,100779.7
2023-05-21T03:55:26.058Z,100775.88
2023-05-21T03:56:26.068Z,100774.09
2023-05-21T03:57:26.062Z,100776.15
2023-05-21T03:58:26.117Z,100775.28
2023-05-21T03:59:26.121Z,100776.95
2023-05-21T04:00:26.278Z,100775.58
2023-05-21T04:01:26.127Z,100776.48
2023-05-21T04:02:26.980Z,100777.31
2023-05-21T04:03:26.316Z,100776.05
2023-05-21T04:04:26.216Z,100779.23
2023-05-21T04:05:26.211Z,100778.8
2023-05-21T04:06:26.184Z,100776.61
2023-05-21T04:07:26.220Z,100776.88
2023-05-21T04:08:26.431Z,100773.59
2023-05-21T04:09:26.226Z,100772.89
2023-05-21T04:10:27.061Z,100770.73
2023-05-21T04:11:26.844Z,100773.95
2023-05-21T04:12:26.771Z,100776.84
2023-05-21T04:13:26.788Z,100777.08
2023-05-21T04:14:26.829Z,100773.32
2023-05-21T04:15:26.856Z,100778
2023-05-21T04:16:26.944Z,100778.53
2023-05-21T04:17:27.142Z,100779.97
2023-05-21T04:18:26.979Z,100779.17
2023-05-21T04:19:27.052Z,100780.06
2023-05-21T04:20:27.263Z,100780.16
2023-05-21T04:21:27.002Z,100779.09
2023-05-21T04:22:27.197Z,100783.84
2023-05-21T04:23:27.413Z,100787.8
2023-05-21T04:24:26.998Z,100782.89
2023-05-21T04:25:27.055Z,100786.61
2023-05-21T04:26:26.980Z,100787.38
2023-05-21T04:27:27.108Z,100792.05
2023-05-21T04:28:27.108Z,100798.66
2023-05-21T04:29:27.481Z,100802.7
2023-05-21T04:30:27.110Z,100798.98
2023-05-21T04:31:27.173Z,100797.2
2023-05-21T04:32:27.192Z,100799.31
2023-05-21T04:33:27.187Z,100800.28
2023-05-21T04:34:27.176Z,100797.8
2023-05-21T04:35:27.245Z,100800.08
2023-05-21T04:36:27.198Z,100795.87
2023-05-21T04:37:27.612Z,100801.59
2023-05-21T04:38:27.267Z,100799.09
2023-05-21T04:39:27.600Z,100800.27
2023-05-21T04:40:27.235Z,100796.16
2023-05-21T04:41:27.269Z,100798.43
2023-05-21T04:42:27.519Z,100796.55
2023-05-21T04:43:27.262Z,100799.64
2023-05-21T04:44:27.794Z,100801.19
2023-05-21T04:45:27.799Z,100797.81
2023-05-21T04:46:27.831Z,100794.48
2023-05-21T04:47:27.901Z,100791.46
2023-05-21T04:48:27.818Z,100800.45
2023-05-21T04:49:27.858Z,100796.5
2023-05-21T04:50:28.069Z,100796.46
2023-05-21T04:51:28.192Z,100794.98
2023-05-21T04:52:27.928Z,100794.8
2023-05-21T04:53:27.965Z,100788.28
2023-05-21T04:54:28.612Z,100785.88
2023-05-21T04:55:27.970Z,100786.49
2023-05-21T04:56:28.000Z,100790.97
2023-05-21T04:57:27.978Z,100789.36
2023-05-21T04:58:28.046Z,100791.92
2023-05-21T04:59:28.093Z,100790.85
2023-05-21T05:00:27.989Z,100786.34
2023-05-21T05:01:28.137Z,100783.55
2023-05-21T05:02:28.124Z,100782.85
2023-05-21T05:03:28.173Z,100783.5
2023-05-21T05:04:28.120Z,100782.34
2023-05-21T05:05:28.096Z,100778.58
2023-05-21T05:06:28.142Z,100777.98
2023-05-21T05:07:28.190Z,100780.42
2023-05-21T05:08:28.164Z,100780.57
2023-05-21T05:09:28.201Z,100780.86
2023-05-21T05:10:28.198Z,100779.69
2023-05-21T05:11:28.191Z,100781.7
2023-05-21T05:12:28.243Z,100785.23
2023-05-21T05:13:28.227Z,100781.84
2023-05-21T05:14:28.233Z,100781.64
2023-05-21T05:15:28.236Z,100781.77
2023-05-21T05:16:28.269Z,100781.33
2023-05-21T05:17:28.320Z,100772.66
2023-05-21T05:18:29.248Z,100773.88
2023-05-21T05:19:28.486Z,100776.15
2023-05-21T05:20:28.419Z,100773.22
2023-05-21T05:21:28.343Z,100771.42
2023-05-21T05:22:28.403Z,100766.37
2023-05-21T05:23:28.371Z,100767.73
2023-05-21T05:24:28.371Z,100768.03
2023-05-21T05:25:28.454Z,100767.22
2023-05-21T05:26:28.469Z,100767.78
2023-05-21T05:27:28.685Z,100767.39
2023-05-21T05:28:28.487Z,100767.17
2023-05-21T05:29:28.485Z,100768.27
2023-05-21T05:30:28.475Z,100765
2023-05-21T05:31:28.533Z,100763.86
2023-05-21T05:32:28.573Z,100756.81
2023-05-21T05:33:28.609Z,100754.59
2023-05-21T05:34:28.538Z,100757.34
2023-05-21T05:35:28.569Z,100754.97
2023-05-21T05:36:28.549Z,100755.85
2023-05-21T05:37:28.568Z,100751.83
2023-05-21T05:38:28.579Z,100757.44
2023-05-21T05:39:28.596Z,100752.81
2023-05-21T05:40:28.643Z,100753.42
2023-05-21T05:41:28.580Z,100750.24
2023-05-21T05:42:28.648Z,100751.89
2023-05-21T05:43:28.663Z,100754.43
2023-05-21T05:44:28.658Z,100754.73
2023-05-21T05:45:28.672Z,100753.77
2023-05-21T05:46:29.291Z,100748.91
2023-05-21T05:47:28.694Z,100755.19
2023-05-21T05:48:28.745Z,100756.36
2023-05-21T05:49:28.696Z,100753.64
2023-05-21T05:50:28.675Z,100749.44
2023-05-21T05:51:28.721Z,100754.25
2023-05-21T05:52:28.741Z,100753.42
2023-05-21T05:53:28.748Z,100756.62
2023-05-21T05:54:28.879Z,100750.97
2023-05-21T05:55:28.776Z,100748.89
2023-05-21T05:56:28.823Z,100749.19
2023-05-21T05:57:28.761Z,100749.14
2023-05-21T05:58:29.934Z,100749.34
2023-05-21T05:59:28.788Z,100744.31
2023-05-21T06:00:28.879Z,100741.95
2023-05-21T06:01:28.838Z,100744.3
2023-05-21T06:02:28.904Z,100746.59
2023-05-21T06:03:28.963Z,100744.34
2023-05-21T06:04:28.891Z,100740.92
2023-05-21T06:05:29.328Z,100748.16
2023-05-21T06:06:28.883Z,100745.38
2023-05-21T06:07:28.907Z,100749.39
2023-05-21T06:08:28.885Z,100745.3
2023-05-21T06:09:28.985Z,100743.09
2023-05-21T06:10:28.937Z,100736.16
2023-05-21T06:11:29.013Z,100734.91
2023-05-21T06:12:28.945Z,100734.23
2023-05-21T06:13:29.016Z,100732.69
2023-05-21T06:14:28.986Z,100731.92
2023-05-21T06:15:29.302Z,100731.55
2023-05-21T06:16:29.226Z,100742.22
2023-05-21T06:17:29.022Z,100742.41
2023-05-21T06:18:29.249Z,100739.38
2023-05-21T06:19:29.173Z,100737.31
2023-05-21T06:20:29.266Z,100741.56
2023-05-21T06:21:29.121Z,100745.42
2023-05-21T06:22:29.118Z,100740.63
2023-05-21T06:23:29.176Z,100736.53
2023-05-21T06:24:29.658Z,100740.66
2023-05-21T06:25:29.233Z,100733.94
2023-05-21T06:26:29.241Z,100736.62
2023-05-21T06:27:29.241Z,100746.06
2023-05-21T06:28:29.225Z,100743
2023-05-21T06:29:29.245Z,100740.29
2023-05-21T06:30:29.250Z,100740.32
2023-05-21T06:31:29.269Z,100735.23
2023-05-21T06:32:29.296Z,100739.28
2023-05-21T06:33:29.399Z,100734.36
2023-05-21T06:34:29.306Z,100738.93
2023-05-21T06:35:29.330Z,100736.57
2023-05-21T06:36:29.420Z,100736.15
2023-05-21T06:37:29.361Z,100729.78
2023-05-21T06:38:29.371Z,100736.95
2023-05-21T06:39:29.411Z,100738.84
2023-05-21T06:40:29.405Z,100732.38
2023-05-21T06:41:29.418Z,100730.05
2023-05-21T06:42:29.378Z,100727.31
2023-05-21T06:43:29.487Z,100725.95
2023-05-21T06:44:29.420Z,100727.23
2023-05-21T06:45:29.889Z,100724.26
2023-05-21T06:46:30.049Z,100727.53
2023-05-21T06:47:29.883Z,100730.09
2023-05-21T06:48:29.881Z,100722.49
2023-05-21T06:49:29.990Z,100725.69
2023-05-21T06:50:29.945Z,100725.66
2023-05-21T06:51:29.973Z,100724.84
2023-05-21T06:52:29.975Z,100725.42
2023-05-21T06:53:30.017Z,100723.19
2023-05-21T06:54:29.981Z,100722.91
2023-05-21T06:55:29.978Z,100717.55
2023-05-21T06:56:30.057Z,100719.61
2023-05-21T06:57:30.068Z,100722.78
2023-05-21T06:58:30.113Z,100719.98
2023-05-21T06:59:30.072Z,100718.27
2023-05-21T07:00:30.084Z,100718.75
2023-05-21T07:01:30.208Z,100720.3
2023-05-21T07:02:30.247Z,100718.97
2023-05-21T07:03:30.297Z,100716.48
2023-05-21T07:04:30.154Z,100708.35
2023-05-21T07:05:30.275Z,100703.38
2023-05-21T07:06:30.187Z,100707.05
2023-05-21T07:07:30.163Z,100708.87
2023-05-21T07:08:30.231Z,100703.67
2023-05-21T07:09:30.914Z,100701.95
2023-05-21T07:10:30.278Z,100703.2
2023-05-21T07:11:30.215Z,100699.48
2023-05-21T07:12:30.251Z,100700.54
2023-05-21T07:13:30.268Z,100695.22
2023-05-21T07:14:30.270Z,100696.56
2023-05-21T07:15:30.289Z,100696.09
2023-05-21T07:16:30.327Z,100693.83
2023-05-21T07:17:30.344Z,100690.52
2023-05-21T07:18:30.995Z,100693.74
2023-05-21T07:19:30.378Z,100688.16
2023-05-21T07:20:30.566Z,100691.08
2023-05-21T07:21:30.385Z,100686.41
2023-05-21T07:22:30.421Z,100687.12
2023-05-21T07:23:30.390Z,100688.75
2023-05-21T07:24:30.388Z,100684.29
2023-05-21T07:25:30.593Z,100689.41
2023-05-21T07:26:30.480Z,100688.3
2023-05-21T07:27:30.575Z,100688.92
2023-05-21T07:28:30.546Z,100689.09
2023-05-21T07:29:30.548Z,100685.9
2023-05-21T07:30:30.489Z,100686.72
2023-05-21T07:31:30.584Z,100681.87
2023-05-21T07:32:30.925Z,100684.7
2023-05-21T07:33:30.530Z,100685.99
2023-05-21T07:34:30.486Z,100685.52
2023-05-21T07:35:30.582Z,100680.3
2023-05-21T07:36:30.580Z,100677.9
2023-05-21T07:37:30.644Z,100672.84
2023-05-21T07:38:30.600Z,100676.05
2023-05-21T07:39:31.046Z,100681.47
2023-05-21T07:40:30.565Z,100676.67
2023-05-21T07:41:30.590Z,100673.14
2023-05-21T07:42:31.009Z,100677.13
2023-05-21T07:43:31.440Z,100674.77
2023-05-21T07:44:30.636Z,100677.75
2023-05-21T07:45:30.829Z,100676.06
2023-05-21T07:46:30.715Z,100671.44
2023-05-21T07:47:30.674Z,100669.97
2023-05-21T07:48:30.679Z,100676.5
2023-05-21T07:49:30.733Z,100671.31
2023-05-21T07:50:30.942Z,100668.14
2023-05-21T07:51:31.053Z,100666.5
2023-05-21T07:52:30.782Z,100669.55
2023-05-21T07:53:30.748Z,100669.14
2023-05-21T07:54:30.748Z,100665.51
2023-05-21T07:55:30.771Z,100660.23
2023-05-21T07:56:30.786Z,100667.73
2023-05-21T07:57:30.791Z,100664.97
2023-05-21T07:58:30.863Z,100660.36
2023-05-21T07:59:30.846Z,100664.61
2023-05-21T08:00:41.952Z,100664.59
2023-05-21T08:01:33.643Z,100656
2023-05-21T08:02:33.749Z,100658.42
2023-05-21T08:03:33.861Z,100658.62
2023-05-21T08:04:33.752Z,100657.8
2023-05-21T08:05:33.705Z,100656.87
2023-05-21T08:06:33.710Z,100655.38
2023-05-21T08:07:33.757Z,100654.7
2023-05-21T08:08:33.769Z,100656.5
2023-05-21T08:09:33.757Z,100648.05
2023-05-21T08:10:33.812Z,100653.59
2023-05-21T08:11:33.927Z,100647.75
2023-05-21T08:12:33.836Z,100644.67
2023-05-21T08:13:33.786Z,100646.66
2023-05-21T08:14:33.832Z,100648.08
2023-05-21T08:15:33.784Z,100642.18
2023-05-21T08:16:34.633Z,100636.12
2023-05-21T08:17:33.869Z,100643.61
2023-05-21T08:18:33.986Z,100641.16
2023-05-21T08:19:33.928Z,100646.09
2023-05-21T08:20:34.423Z,100648.45
2023-05-21T08:21:33.907Z,100643.4
2023-05-21T08:22:33.931Z,100645.62
2023-05-21T08:23:33.930Z,100640.05
2023-05-21T08:24:34.354Z,100638.89
2023-05-21T08:25:33.965Z,100640.45
2023-05-21T08:26:33.974Z,100636.3
2023-05-21T08:27:33.990Z,100639.78
2023-05-21T08:28:34.011Z,100639.26
2023-05-21T08:29:34.108Z,100638.7
2023-05-21T08:30:34.027Z,100636
2023-05-21T08:31:34.078Z,100638.19
2023-05-21T08:32:34.074Z,100630.08
2023-05-21T08:33:36.996Z,100632
2023-05-21T08:34:34.140Z,100628.67
2023-05-21T08:35:34.546Z,100630.04
2023-05-21T08:36:34.079Z,100629.08
2023-05-21T08:37:34.187Z,100628.33
2023-05-21T08:38:34.602Z,100620.32
2023-05-21T08:39:34.164Z,100623.41
2023-05-21T08:40:34.582Z,100621.34
2023-05-21T08:41:35.213Z,100622.34
2023-05-21T08:42:43.627Z,100615.94
2023-05-21T08:43:37.054Z,100617.88
2023-05-21T08:44:37.782Z,100619.11
2023-05-21T08:45:37.072Z,100620.59
2023-05-21T08:46:36.042Z,100611.55
2023-05-21T08:47:36.329Z,100615.39
2023-05-21T08:48:36.883Z,100615
2023-05-21T08:49:35.975Z,100617.31
2023-05-21T08:50:35.562Z,100614.38
2023-05-21T08:51:35.676Z,100616.72
2023-05-21T08:52:35.870Z,100619.2
2023-05-21T08:53:35.505Z,100611.19
2023-05-21T08:54:35.856Z,100604.88
2023-05-21T08:55:36.324Z,100601.97
2023-05-21T08:56:35.524Z,100605.31
2023-05-21T08:57:36.119Z,100607.73
2023-05-21T08:58:36.414Z,100607.73
2023-05-21T08:59:35.997Z,100606.78
2023-05-21T09:00:35.582Z,100603.05
2023-05-21T09:01:36.074Z,100601.12
2023-05-21T09:02:37.641Z,100607.18
2023-05-21T09:03:36.126Z,100606.44
2023-05-21T09:04:35.916Z,100602.81
2023-05-21T09:05:35.794Z,100593.3
2023-05-21T09:06:36.420Z,100594.23
2023-05-21T09:07:41.950Z,100590.44
2023-05-21T09:08:43.254Z,100590.97
2023-05-21T09:09:45.808Z,100586.06
2023-05-21T09:10:48.415Z,100588.33
2023-05-21T09:11:46.186Z,100594.98
2023-05-21T09:12:45.522Z,100590.62
2023-05-21T09:13:46.182Z,100592.09
2023-05-21T09:14:47.293Z,100596.62
2023-05-21T09:15:45.450Z,100593.08
2023-05-21T09:16:46.202Z,100588.5
2023-05-21T09:17:48.499Z,100595.53
2023-05-21T09:18:45.347Z,100587.81
2023-05-21T09:20:50.301Z,100586.67
2023-05-21T09:21:52.688Z,100588
2023-05-21T09:22:50.534Z,100587.16
2023-05-21T09:23:56.701Z,100593.62
2023-05-21T09:24:53.822Z,100589.31
2023-05-21T09:25:53.376Z,100593.58
2023-05-21T09:26:53.409Z,100589.47
2023-05-21T09:27:54.856Z,100588.89
2023-05-21T09:28:56.769Z,100594.92
2023-05-21T09:29:53.505Z,100597.56
2023-05-21T09:30:53.539Z,100589.32
2023-05-21T09:31:53.682Z,100590.73
2023-05-21T09:32:57.647Z,100588.83
2023-05-21T09:33:54.418Z,100590.36
2023-05-21T09:34:54.488Z,100591.01
2023-05-21T09:35:54.594Z,100597.02
2023-05-21T09:36:56.645Z,100589.56
2023-05-21T09:37:55.019Z,100592.16
2023-05-21T09:38:54.819Z,100595.73
2023-05-21T09:39:54.866Z,100597.98
2023-05-21T09:40:57.287Z,100593.47
2023-05-21T09:41:56.589Z,100587.87
2023-05-21T09:42:55.083Z,100589.34
2023-05-21T09:43:58.561Z,100591.3
2023-05-21T09:44:55.292Z,100590.67
2023-05-21T09:45:56.861Z,100594.72
2023-05-21T09:46:58.304Z,100584
2023-05-21T09:47:55.927Z,100586.25
2023-05-21T09:48:55.290Z,100583.27
2023-05-21T09:49:58.096Z,100585.8
2023-05-21T09:51:06.652Z,100584.94
2023-05-21T09:51:58.604Z,100585.82
2023-05-21T09:52:58.378Z,100586.42
2023-05-21T09:53:58.617Z,100582.37
2023-05-21T09:54:58.419Z,100583.42
2023-05-21T09:55:59.443Z,100579.12
2023-05-21T09:56:59.869Z,100581.54
2023-05-21T09:57:58.623Z,100579.58
2023-05-21T09:58:59.420Z,100578.13
2023-05-21T09:59:58.763Z,100575.31
2023-05-21T10:00:58.971Z,100574.51
2023-05-21T10:01:58.507Z,100573.69
2023-05-21T10:03:01.471Z,100569.74
2023-05-21T10:03:59.421Z,100571.8
2023-05-21T10:04:58.913Z,100569.17
2023-05-21T10:05:59.610Z,100567.09
2023-05-21T10:06:59.650Z,100564.61
2023-05-21T10:08:02.255Z,100565
2023-05-21T10:09:01.161Z,100569.03
2023-05-21T10:10:00.401Z,100574.36
2023-05-21T10:10:59.357Z,100569.16
2023-05-21T10:11:59.442Z,100570.03
2023-05-21T10:13:00.673Z,100567.09
2023-05-21T10:14:06.240Z,100565.2
2023-05-21T10:15:04.023Z,100565.77
2023-05-21T10:16:03.879Z,100563.45
2023-05-21T10:17:04.710Z,100557.52
2023-05-21T10:18:03.582Z,100550.48
2023-05-21T10:19:03.446Z,100555.23
2023-05-21T10:20:04.657Z,100558.5
2023-05-21T10:21:04.342Z,100570.36
2023-05-21T10:22:03.937Z,100569.53
2023-05-21T10:23:03.538Z,100566.34
2023-05-21T10:24:05.058Z,100565.44
2023-05-21T10:25:03.846Z,100570.27
2023-05-21T10:26:03.639Z,100565.93
2023-05-21T10:27:03.759Z,100568.36
2023-05-21T10:28:03.519Z,100566.6
2023-05-21T10:29:03.349Z,100564.73
2023-05-21T10:30:12.009Z,100564.2
2023-05-21T10:31:04.144Z,100562.47
2023-05-21T10:32:05.487Z,100557.77
2023-05-21T10:33:04.292Z,100560.38
2023-05-21T10:34:03.932Z,100563.89
2023-05-21T10:35:04.322Z,100563.39
2023-05-21T10:36:05.012Z,100562.02
2023-05-21T10:37:04.538Z,100562.98
2023-05-21T10:38:04.253Z,100556.59
2023-05-21T10:39:04.075Z,100555.84
2023-05-21T10:40:04.364Z,100555.38
2023-05-21T10:41:05.586Z,100547.2
2023-05-21T10:42:13.809Z,100547.27
2023-05-21T10:43:13.361Z,100549.78
2023-05-21T10:52:32.574Z,100539.91
2023-05-21T11:00:42.778Z,100543.62
2023-05-21T11:01:42.242Z,100544.34
2023-05-21T11:02:42.360Z,100536.3
2023-05-21T11:03:42.349Z,100531.44
2023-05-21T11:04:44.558Z,100527.23
2023-05-21T11:06:46.816Z,100521.39
2023-05-21T11:08:47.577Z,100521.66
2023-05-21T11:09:44.372Z,100519.88
2023-05-21T11:10:44.381Z,100519.25
2023-05-21T11:13:53.017Z,100525.47
2023-05-21T11:14:56.816Z,100528.55
2023-05-21T11:16:02.458Z,100523.9
2023-05-21T11:16:54.703Z,100530.91
2023-05-21T11:17:56.683Z,100529.12
2023-05-21T11:18:57.248Z,100525.5
2023-05-21T11:19:54.591Z,100530.03
2023-05-21T11:20:54.265Z,100532.03
2023-05-21T11:21:55.124Z,100527.95
2023-05-21T11:22:54.309Z,100527.19
2023-05-21T11:23:55.536Z,100529.69
2023-05-21T11:24:55.378Z,100524.28
2023-05-21T11:26:03.049Z,100526.89
2023-05-21T11:27:03.400Z,100526.39
2023-05-21T11:28:04.992Z,100522
2023-05-21T11:29:08.681Z,100524.19
2023-05-21T11:30:03.176Z,100519.64
2023-05-21T11:32:06.487Z,100520.67
2023-05-21T11:34:12.712Z,100522.59
2023-05-21T11:35:13.795Z,100524.9
2023-05-21T11:36:12.006Z,100522.98
2023-05-21T11:38:12.419Z,100525.17
2023-05-21T11:39:18.774Z,100525.52
2023-05-21T11:40:24.869Z,100525.55
2023-05-21T11:41:19.903Z,100522.11
2023-05-21T11:43:19.097Z,100517.76
2023-05-21T11:44:19.191Z,100512.42
2023-05-21T11:45:19.743Z,100513.66
2023-05-21T11:46:19.331Z,100513.4
2023-05-21T11:47:19.341Z,100517.15
2023-05-21T11:48:20.909Z,100513.84
2023-05-21T11:49:21.719Z,100505.62
2023-05-21T11:50:19.541Z,100513.41
2023-05-21T11:51:19.194Z,100505.2
2023-05-21T11:52:19.042Z,100508.32
2023-05-21T11:53:19.010Z,100499.92
2023-05-21T11:54:19.039Z,100504.78